sensor_id;sensor_type;location;lat;lon;timestamp;P1;durP1;ratioP1;P2;durP2;ratioP2
75050;SDS011;63628;47.656;11.310;2023-07-24T00:00:21;5.45;;;4.43;;
75050;SDS011;63628;47.656;11.310;2023-07-24T00:02:48;5.35;;;4.22;;
75050;SDS011;63628;47.656;11.310;2023-07-24T00:05:16;4.68;;;4.00;;
75050;SDS011;63628;47.656;11.310;2023-07-24T00:07:43;5.47;;;4.33;;
75050;SDS011;63628;47.656;11.310;2023-07-24T00:10:10;7.72;;;5.43;;
75050;SDS011;63628;47.656;11.310;2023-07-24T00:12:36;9.63;;;5.68;;
75050;SDS011;63628;47.656;11.310;2023-07-24T00:15:03;7.05;;;5.10;;
75050;SDS011;63628;47.656;11.310;2023-07-24T00:17:31;8.70;;;6.03;;
75050;SDS011;63628;47.656;11.310;2023-07-24T00:19:57;7.00;;;4.85;;
75050;SDS011;63628;47.656;11.310;2023-07-24T00:22:25;6.50;;;5.03;;
75050;SDS011;63628;47.656;11.310;2023-07-24T00:24:52;6.88;;;5.22;;
75050;SDS011;63628;47.656;11.310;2023-07-24T00:27:19;5.13;;;4.25;;
75050;SDS011;63628;47.656;11.310;2023-07-24T00:29:45;5.20;;;4.38;;
75050;SDS011;63628;47.656;11.310;2023-07-24T00:32:12;7.43;;;5.40;;
75050;SDS011;63628;47.656;11.310;2023-07-24T00:34:39;8.90;;;6.28;;
75050;SDS011;63628;47.656;11.310;2023-07-24T00:37:05;7.03;;;4.90;;
75050;SDS011;63628;47.656;11.310;2023-07-24T00:39:34;6.85;;;5.25;;
75050;SDS011;63628;47.656;11.310;2023-07-24T00:42:01;7.22;;;4.85;;
75050;SDS011;63628;47.656;11.310;2023-07-24T00:44:28;7.88;;;5.70;;
75050;SDS011;63628;47.656;11.310;2023-07-24T00:46:54;7.50;;;5.35;;
75050;SDS011;63628;47.656;11.310;2023-07-24T00:49:21;9.18;;;5.45;;
75050;SDS011;63628;47.656;11.310;2023-07-24T00:51:48;11.75;;;7.05;;
75050;SDS011;63628;47.656;11.310;2023-07-24T00:54:15;8.20;;;6.28;;
75050;SDS011;63628;47.656;11.310;2023-07-24T00:56:44;7.40;;;5.18;;
75050;SDS011;63628;47.656;11.310;2023-07-24T00:59:12;10.18;;;7.05;;
75050;SDS011;63628;47.656;11.310;2023-07-24T01:01:38;9.57;;;6.22;;
75050;SDS011;63628;47.656;11.310;2023-07-24T01:04:07;7.00;;;4.88;;
75050;SDS011;63628;47.656;11.310;2023-07-24T01:06:34;7.00;;;5.22;;
75050;SDS011;63628;47.656;11.310;2023-07-24T01:09:01;8.40;;;6.28;;
75050;SDS011;63628;47.656;11.310;2023-07-24T01:11:28;12.13;;;7.63;;
75050;SDS011;63628;47.656;11.310;2023-07-24T01:14:09;10.37;;;7.00;;
75050;SDS011;63628;47.656;11.310;2023-07-24T01:16:40;8.70;;;7.03;;
75050;SDS011;63628;47.656;11.310;2023-07-24T01:19:11;10.45;;;6.65;;
75050;SDS011;63628;47.656;11.310;2023-07-24T01:21:44;7.78;;;5.72;;
75050;SDS011;63628;47.656;11.310;2023-07-24T01:24:20;6.75;;;5.07;;
75050;SDS011;63628;47.656;11.310;2023-07-24T01:26:56;5.28;;;4.53;;
75050;SDS011;63628;47.656;11.310;2023-07-24T01:29:23;9.95;;;6.45;;
75050;SDS011;63628;47.656;11.310;2023-07-24T01:31:49;10.93;;;6.95;;
75050;SDS011;63628;47.656;11.310;2023-07-24T01:34:16;9.85;;;6.65;;
75050;SDS011;63628;47.656;11.310;2023-07-24T01:36:43;9.35;;;6.47;;
75050;SDS011;63628;47.656;11.310;2023-07-24T01:39:10;7.90;;;5.60;;
75050;SDS011;63628;47.656;11.310;2023-07-24T01:41:37;6.85;;;4.93;;
75050;SDS011;63628;47.656;11.310;2023-07-24T01:44:06;10.68;;;7.07;;
75050;SDS011;63628;47.656;11.310;2023-07-24T01:46:33;5.82;;;4.30;;
75050;SDS011;63628;47.656;11.310;2023-07-24T01:48:59;11.30;;;7.70;;
75050;SDS011;63628;47.656;11.310;2023-07-24T01:51:26;9.95;;;7.03;;
75050;SDS011;63628;47.656;11.310;2023-07-24T01:53:53;7.47;;;5.30;;
75050;SDS011;63628;47.656;11.310;2023-07-24T01:56:19;8.63;;;5.78;;
75050;SDS011;63628;47.656;11.310;2023-07-24T01:58:46;8.52;;;5.80;;
75050;SDS011;63628;47.656;11.310;2023-07-24T02:01:14;11.77;;;7.75;;
75050;SDS011;63628;47.656;11.310;2023-07-24T02:03:41;9.70;;;6.85;;
75050;SDS011;63628;47.656;11.310;2023-07-24T02:06:07;13.13;;;8.25;;
75050;SDS011;63628;47.656;11.310;2023-07-24T02:08:34;8.15;;;5.78;;
75050;SDS011;63628;47.656;11.310;2023-07-24T02:11:01;10.82;;;8.00;;
75050;SDS011;63628;47.656;11.310;2023-07-24T02:13:27;10.48;;;6.53;;
75050;SDS011;63628;47.656;11.310;2023-07-24T02:15:54;10.65;;;7.80;;
75050;SDS011;63628;47.656;11.310;2023-07-24T02:18:22;8.27;;;6.28;;
75050;SDS011;63628;47.656;11.310;2023-07-24T02:20:49;12.40;;;7.68;;
75050;SDS011;63628;47.656;11.310;2023-07-24T02:23:17;9.82;;;6.20;;
75050;SDS011;63628;47.656;11.310;2023-07-24T02:25:44;11.57;;;7.93;;
75050;SDS011;63628;47.656;11.310;2023-07-24T02:28:10;14.38;;;8.18;;
75050;SDS011;63628;47.656;11.310;2023-07-24T02:30:38;11.73;;;8.18;;
75050;SDS011;63628;47.656;11.310;2023-07-24T02:33:05;11.50;;;7.80;;
75050;SDS011;63628;47.656;11.310;2023-07-24T02:35:38;11.10;;;7.88;;
75050;SDS011;63628;47.656;11.310;2023-07-24T02:38:06;9.80;;;6.93;;
75050;SDS011;63628;47.656;11.310;2023-07-24T02:40:33;7.70;;;5.88;;
75050;SDS011;63628;47.656;11.310;2023-07-24T02:43:00;8.32;;;5.75;;
75050;SDS011;63628;47.656;11.310;2023-07-24T02:45:26;9.43;;;6.13;;
75050;SDS011;63628;47.656;11.310;2023-07-24T02:47:53;10.43;;;7.13;;
75050;SDS011;63628;47.656;11.310;2023-07-24T02:50:20;12.10;;;8.00;;
75050;SDS011;63628;47.656;11.310;2023-07-24T02:52:48;7.20;;;5.25;;
75050;SDS011;63628;47.656;11.310;2023-07-24T02:55:14;10.75;;;7.28;;
75050;SDS011;63628;47.656;11.310;2023-07-24T02:57:41;9.20;;;6.40;;
75050;SDS011;63628;47.656;11.310;2023-07-24T03:00:08;13.45;;;8.85;;
75050;SDS011;63628;47.656;11.310;2023-07-24T03:02:36;11.55;;;7.10;;
75050;SDS011;63628;47.656;11.310;2023-07-24T03:05:04;11.90;;;8.45;;
75050;SDS011;63628;47.656;11.310;2023-07-24T03:07:31;8.52;;;5.75;;
75050;SDS011;63628;47.656;11.310;2023-07-24T03:09:59;17.48;;;9.73;;
75050;SDS011;63628;47.656;11.310;2023-07-24T03:12:26;13.07;;;8.95;;
75050;SDS011;63628;47.656;11.310;2023-07-24T03:14:53;13.95;;;8.20;;
75050;SDS011;63628;47.656;11.310;2023-07-24T03:17:20;12.85;;;8.90;;
75050;SDS011;63628;47.656;11.310;2023-07-24T03:19:48;10.32;;;7.45;;
75050;SDS011;63628;47.656;11.310;2023-07-24T03:22:15;9.15;;;6.45;;
75050;SDS011;63628;47.656;11.310;2023-07-24T03:24:42;12.38;;;8.73;;
75050;SDS011;63628;47.656;11.310;2023-07-24T03:27:10;12.10;;;8.60;;
75050;SDS011;63628;47.656;11.310;2023-07-24T03:29:36;14.60;;;9.27;;
75050;SDS011;63628;47.656;11.310;2023-07-24T03:32:03;13.20;;;8.80;;
75050;SDS011;63628;47.656;11.310;2023-07-24T03:34:30;15.57;;;9.55;;
75050;SDS011;63628;47.656;11.310;2023-07-24T03:36:57;12.45;;;8.00;;
75050;SDS011;63628;47.656;11.310;2023-07-24T03:39:24;13.75;;;8.18;;
75050;SDS011;63628;47.656;11.310;2023-07-24T03:41:50;10.68;;;7.40;;
75050;SDS011;63628;47.656;11.310;2023-07-24T03:44:18;9.50;;;6.85;;
75050;SDS011;63628;47.656;11.310;2023-07-24T03:46:45;9.02;;;6.57;;
75050;SDS011;63628;47.656;11.310;2023-07-24T03:49:12;9.35;;;6.05;;
75050;SDS011;63628;47.656;11.310;2023-07-24T03:51:38;14.13;;;8.68;;
75050;SDS011;63628;47.656;11.310;2023-07-24T03:54:05;10.48;;;7.40;;
75050;SDS011;63628;47.656;11.310;2023-07-24T03:56:32;7.85;;;5.85;;
75050;SDS011;63628;47.656;11.310;2023-07-24T03:58:58;7.82;;;5.85;;
75050;SDS011;63628;47.656;11.310;2023-07-24T04:01:26;7.50;;;5.70;;
75050;SDS011;63628;47.656;11.310;2023-07-24T04:03:53;8.32;;;5.80;;
75050;SDS011;63628;47.656;11.310;2023-07-24T04:06:20;6.90;;;5.45;;
75050;SDS011;63628;47.656;11.310;2023-07-24T04:08:47;7.03;;;5.07;;
75050;SDS011;63628;47.656;11.310;2023-07-24T04:11:14;9.63;;;6.20;;
75050;SDS011;63628;47.656;11.310;2023-07-24T04:13:40;8.88;;;6.75;;
75050;SDS011;63628;47.656;11.310;2023-07-24T04:16:07;8.65;;;5.93;;
75050;SDS011;63628;47.656;11.310;2023-07-24T04:18:35;8.02;;;5.93;;
75050;SDS011;63628;47.656;11.310;2023-07-24T04:21:02;8.85;;;5.93;;
75050;SDS011;63628;47.656;11.310;2023-07-24T04:23:28;8.25;;;6.10;;
75050;SDS011;63628;47.656;11.310;2023-07-24T04:25:55;8.05;;;5.95;;
75050;SDS011;63628;47.656;11.310;2023-07-24T04:28:22;9.18;;;6.40;;
75050;SDS011;63628;47.656;11.310;2023-07-24T04:30:48;8.05;;;5.50;;
75050;SDS011;63628;47.656;11.310;2023-07-24T04:33:15;7.53;;;5.30;;
75050;SDS011;63628;47.656;11.310;2023-07-24T04:35:43;7.35;;;5.57;;
75050;SDS011;63628;47.656;11.310;2023-07-24T04:38:13;12.68;;;8.32;;
75050;SDS011;63628;47.656;11.310;2023-07-24T04:40:43;11.75;;;8.00;;
75050;SDS011;63628;47.656;11.310;2023-07-24T04:43:10;7.70;;;5.78;;
75050;SDS011;63628;47.656;11.310;2023-07-24T04:45:36;14.82;;;9.48;;
75050;SDS011;63628;47.656;11.310;2023-07-24T04:48:03;14.45;;;9.18;;
75050;SDS011;63628;47.656;11.310;2023-07-24T04:50:31;12.57;;;8.43;;
75050;SDS011;63628;47.656;11.310;2023-07-24T04:53:00;8.35;;;6.43;;
75050;SDS011;63628;47.656;11.310;2023-07-24T04:55:26;11.13;;;7.63;;
75050;SDS011;63628;47.656;11.310;2023-07-24T04:57:53;9.85;;;6.88;;
75050;SDS011;63628;47.656;11.310;2023-07-24T05:00:20;11.98;;;8.45;;
75050;SDS011;63628;47.656;11.310;2023-07-24T05:02:47;11.95;;;8.50;;
75050;SDS011;63628;47.656;11.310;2023-07-24T05:05:13;12.68;;;9.00;;
75050;SDS011;63628;47.656;11.310;2023-07-24T05:07:40;12.05;;;8.00;;
75050;SDS011;63628;47.656;11.310;2023-07-24T05:10:08;18.15;;;8.65;;
75050;SDS011;63628;47.656;11.310;2023-07-24T05:12:35;13.25;;;8.55;;
75050;SDS011;63628;47.656;11.310;2023-07-24T05:15:02;10.15;;;7.57;;
75050;SDS011;63628;47.656;11.310;2023-07-24T05:17:29;14.07;;;8.60;;
75050;SDS011;63628;47.656;11.310;2023-07-24T05:19:56;12.98;;;8.93;;
75050;SDS011;63628;47.656;11.310;2023-07-24T05:22:22;10.57;;;8.30;;
75050;SDS011;63628;47.656;11.310;2023-07-24T05:24:49;12.20;;;8.18;;
75050;SDS011;63628;47.656;11.310;2023-07-24T05:27:17;16.75;;;8.93;;
75050;SDS011;63628;47.656;11.310;2023-07-24T05:29:44;12.73;;;8.30;;
75050;SDS011;63628;47.656;11.310;2023-07-24T05:32:11;12.57;;;8.25;;
75050;SDS011;63628;47.656;11.310;2023-07-24T05:34:37;12.32;;;8.82;;
75050;SDS011;63628;47.656;11.310;2023-07-24T05:37:05;14.98;;;9.05;;
75050;SDS011;63628;47.656;11.310;2023-07-24T05:39:31;12.20;;;8.70;;
75050;SDS011;63628;47.656;11.310;2023-07-24T05:41:58;12.05;;;9.00;;
75050;SDS011;63628;47.656;11.310;2023-07-24T05:44:26;10.27;;;7.88;;
75050;SDS011;63628;47.656;11.310;2023-07-24T05:46:53;12.88;;;8.75;;
75050;SDS011;63628;47.656;11.310;2023-07-24T05:49:19;12.80;;;8.43;;
75050;SDS011;63628;47.656;11.310;2023-07-24T05:51:46;13.70;;;9.05;;
75050;SDS011;63628;47.656;11.310;2023-07-24T05:54:13;11.52;;;7.63;;
75050;SDS011;63628;47.656;11.310;2023-07-24T05:56:39;14.32;;;8.75;;
75050;SDS011;63628;47.656;11.310;2023-07-24T05:59:06;10.77;;;7.38;;
75050;SDS011;63628;47.656;11.310;2023-07-24T06:01:34;10.00;;;7.05;;
75050;SDS011;63628;47.656;11.310;2023-07-24T06:04:01;12.25;;;8.52;;
75050;SDS011;63628;47.656;11.310;2023-07-24T06:06:28;13.55;;;9.15;;
75050;SDS011;63628;47.656;11.310;2023-07-24T06:08:55;12.25;;;8.68;;
75050;SDS011;63628;47.656;11.310;2023-07-24T06:11:22;9.52;;;7.22;;
75050;SDS011;63628;47.656;11.310;2023-07-24T06:13:49;9.30;;;6.43;;
75050;SDS011;63628;47.656;11.310;2023-07-24T06:16:16;11.73;;;8.68;;
75050;SDS011;63628;47.656;11.310;2023-07-24T06:18:44;12.57;;;8.55;;
75050;SDS011;63628;47.656;11.310;2023-07-24T06:21:10;12.07;;;8.68;;
75050;SDS011;63628;47.656;11.310;2023-07-24T06:23:37;9.05;;;6.55;;
75050;SDS011;63628;47.656;11.310;2023-07-24T06:26:04;9.50;;;6.78;;
75050;SDS011;63628;47.656;11.310;2023-07-24T06:28:31;12.10;;;8.35;;
75050;SDS011;63628;47.656;11.310;2023-07-24T06:30:59;10.88;;;7.68;;
75050;SDS011;63628;47.656;11.310;2023-07-24T06:33:26;9.80;;;6.90;;
75050;SDS011;63628;47.656;11.310;2023-07-24T06:35:54;8.98;;;7.00;;
75050;SDS011;63628;47.656;11.310;2023-07-24T06:38:20;8.45;;;6.43;;
75050;SDS011;63628;47.656;11.310;2023-07-24T06:40:47;14.18;;;8.77;;
75050;SDS011;63628;47.656;11.310;2023-07-24T06:43:14;10.95;;;8.30;;
75050;SDS011;63628;47.656;11.310;2023-07-24T06:45:41;9.70;;;7.15;;
75050;SDS011;63628;47.656;11.310;2023-07-24T06:48:08;9.00;;;6.72;;
75050;SDS011;63628;47.656;11.310;2023-07-24T06:50:35;9.15;;;7.05;;
75050;SDS011;63628;47.656;11.310;2023-07-24T06:53:03;9.00;;;6.38;;
75050;SDS011;63628;47.656;11.310;2023-07-24T06:55:30;12.27;;;8.90;;
75050;SDS011;63628;47.656;11.310;2023-07-24T06:57:56;9.80;;;6.95;;
75050;SDS011;63628;47.656;11.310;2023-07-24T07:00:26;9.02;;;6.75;;
75050;SDS011;63628;47.656;11.310;2023-07-24T07:02:52;15.82;;;8.82;;
75050;SDS011;63628;47.656;11.310;2023-07-24T07:05:19;12.70;;;8.95;;
75050;SDS011;63628;47.656;11.310;2023-07-24T07:07:46;11.80;;;8.68;;
75050;SDS011;63628;47.656;11.310;2023-07-24T07:10:14;11.95;;;8.70;;
75050;SDS011;63628;47.656;11.310;2023-07-24T07:12:41;11.52;;;8.43;;
75050;SDS011;63628;47.656;11.310;2023-07-24T07:15:08;11.20;;;8.20;;
75050;SDS011;63628;47.656;11.310;2023-07-24T07:17:35;11.32;;;8.52;;
75050;SDS011;63628;47.656;11.310;2023-07-24T07:20:02;12.73;;;8.52;;
75050;SDS011;63628;47.656;11.310;2023-07-24T07:22:29;14.05;;;8.95;;
75050;SDS011;63628;47.656;11.310;2023-07-24T07:24:56;14.07;;;9.15;;
75050;SDS011;63628;47.656;11.310;2023-07-24T07:27:24;12.60;;;8.93;;
75050;SDS011;63628;47.656;11.310;2023-07-24T07:29:50;14.45;;;9.18;;
75050;SDS011;63628;47.656;11.310;2023-07-24T07:32:17;13.27;;;8.38;;
75050;SDS011;63628;47.656;11.310;2023-07-24T07:34:44;12.18;;;7.70;;
75050;SDS011;63628;47.656;11.310;2023-07-24T07:37:10;11.52;;;8.00;;
75050;SDS011;63628;47.656;11.310;2023-07-24T07:39:37;11.75;;;8.35;;
75050;SDS011;63628;47.656;11.310;2023-07-24T07:42:04;11.02;;;8.00;;
75050;SDS011;63628;47.656;11.310;2023-07-24T07:44:44;12.77;;;8.60;;
75050;SDS011;63628;47.656;11.310;2023-07-24T07:47:11;13.77;;;8.13;;
75050;SDS011;63628;47.656;11.310;2023-07-24T07:49:38;13.30;;;8.20;;
75050;SDS011;63628;47.656;11.310;2023-07-24T07:52:08;10.70;;;8.18;;
75050;SDS011;63628;47.656;11.310;2023-07-24T07:54:35;10.90;;;7.82;;
75050;SDS011;63628;47.656;11.310;2023-07-24T07:57:03;10.85;;;7.88;;
75050;SDS011;63628;47.656;11.310;2023-07-24T07:59:30;11.33;;;7.87;;
75050;SDS011;63628;47.656;11.310;2023-07-24T08:01:58;10.70;;;7.50;;
75050;SDS011;63628;47.656;11.310;2023-07-24T08:04:25;10.27;;;7.87;;
75050;SDS011;63628;47.656;11.310;2023-07-24T08:06:52;12.68;;;6.85;;
75050;SDS011;63628;47.656;11.310;2023-07-24T08:09:18;8.55;;;6.13;;
75050;SDS011;63628;47.656;11.310;2023-07-24T08:11:47;9.05;;;5.82;;
75050;SDS011;63628;47.656;11.310;2023-07-24T08:14:14;9.25;;;6.10;;
75050;SDS011;63628;47.656;11.310;2023-07-24T08:16:40;8.60;;;6.32;;
75050;SDS011;63628;47.656;11.310;2023-07-24T08:19:09;9.68;;;5.93;;
75050;SDS011;63628;47.656;11.310;2023-07-24T08:21:35;9.48;;;5.82;;
75050;SDS011;63628;47.656;11.310;2023-07-24T08:24:03;8.20;;;6.18;;
75050;SDS011;63628;47.656;11.310;2023-07-24T08:26:31;10.23;;;5.60;;
75050;SDS011;63628;47.656;11.310;2023-07-24T08:28:58;8.40;;;5.43;;
75050;SDS011;63628;47.656;11.310;2023-07-24T08:31:24;10.10;;;5.85;;
75050;SDS011;63628;47.656;11.310;2023-07-24T08:33:51;6.68;;;4.95;;
75050;SDS011;63628;47.656;11.310;2023-07-24T08:36:19;7.10;;;5.38;;
75050;SDS011;63628;47.656;11.310;2023-07-24T08:38:46;8.15;;;5.45;;
75050;SDS011;63628;47.656;11.310;2023-07-24T08:41:14;8.20;;;5.82;;
75050;SDS011;63628;47.656;11.310;2023-07-24T08:43:41;8.55;;;6.05;;
75050;SDS011;63628;47.656;11.310;2023-07-24T08:46:09;9.60;;;6.82;;
75050;SDS011;63628;47.656;11.310;2023-07-24T08:48:36;7.60;;;5.57;;
75050;SDS011;63628;47.656;11.310;2023-07-24T08:51:05;9.65;;;6.32;;
75050;SDS011;63628;47.656;11.310;2023-07-24T08:53:34;8.02;;;5.32;;
75050;SDS011;63628;47.656;11.310;2023-07-24T08:56:03;9.43;;;6.00;;
75050;SDS011;63628;47.656;11.310;2023-07-24T08:58:30;8.38;;;5.57;;
75050;SDS011;63628;47.656;11.310;2023-07-24T09:00:57;9.65;;;5.93;;
75050;SDS011;63628;47.656;11.310;2023-07-24T09:03:25;8.50;;;5.70;;
75050;SDS011;63628;47.656;11.310;2023-07-24T09:05:53;9.35;;;5.82;;
75050;SDS011;63628;47.656;11.310;2023-07-24T09:08:28;7.85;;;5.93;;
75050;SDS011;63628;47.656;11.310;2023-07-24T09:10:56;9.55;;;6.10;;
75050;SDS011;63628;47.656;11.310;2023-07-24T09:13:23;7.78;;;5.90;;
75050;SDS011;63628;47.656;11.310;2023-07-24T09:15:49;10.80;;;7.32;;
75050;SDS011;63628;47.656;11.310;2023-07-24T09:18:16;8.48;;;5.88;;
75050;SDS011;63628;47.656;11.310;2023-07-24T09:20:44;8.02;;;5.50;;
75050;SDS011;63628;47.656;11.310;2023-07-24T09:23:12;8.82;;;5.53;;
75050;SDS011;63628;47.656;11.310;2023-07-24T09:25:43;7.70;;;5.82;;
75050;SDS011;63628;47.656;11.310;2023-07-24T09:28:12;7.60;;;4.90;;
75050;SDS011;63628;47.656;11.310;2023-07-24T09:33:07;8.02;;;6.18;;
75050;SDS011;63628;47.656;11.310;2023-07-24T09:35:34;10.85;;;5.78;;
75050;SDS011;63628;47.656;11.310;2023-07-24T09:38:01;8.80;;;6.57;;
75050;SDS011;63628;47.656;11.310;2023-07-24T09:40:36;10.00;;;7.30;;
75050;SDS011;63628;47.656;11.310;2023-07-24T09:43:15;7.57;;;5.18;;
75050;SDS011;63628;47.656;11.310;2023-07-24T09:46:02;10.63;;;5.30;;
75050;SDS011;63628;47.656;11.310;2023-07-24T09:48:31;6.75;;;4.70;;
75050;SDS011;63628;47.656;11.310;2023-07-24T09:51:01;8.43;;;4.95;;
75050;SDS011;63628;47.656;11.310;2023-07-24T09:53:31;9.00;;;5.10;;
75050;SDS011;63628;47.656;11.310;2023-07-24T09:56:01;7.55;;;4.78;;
75050;SDS011;63628;47.656;11.310;2023-07-24T09:58:32;6.15;;;4.60;;
75050;SDS011;63628;47.656;11.310;2023-07-24T10:01:01;7.25;;;4.07;;
75050;SDS011;63628;47.656;11.310;2023-07-24T10:05:56;5.80;;;4.30;;
75050;SDS011;63628;47.656;11.310;2023-07-24T10:08:23;8.50;;;5.82;;
75050;SDS011;63628;47.656;11.310;2023-07-24T10:10:51;7.35;;;5.55;;
75050;SDS011;63628;47.656;11.310;2023-07-24T10:13:20;7.45;;;4.80;;
75050;SDS011;63628;47.656;11.310;2023-07-24T10:15:49;6.30;;;4.90;;
75050;SDS011;63628;47.656;11.310;2023-07-24T10:18:16;8.57;;;5.78;;
75050;SDS011;63628;47.656;11.310;2023-07-24T10:20:47;8.82;;;6.10;;
75050;SDS011;63628;47.656;11.310;2023-07-24T10:23:16;9.07;;;5.85;;
75050;SDS011;63628;47.656;11.310;2023-07-24T10:25:44;7.85;;;5.88;;
75050;SDS011;63628;47.656;11.310;2023-07-24T10:28:12;9.95;;;6.53;;
75050;SDS011;63628;47.656;11.310;2023-07-24T10:30:42;13.07;;;6.20;;
75050;SDS011;63628;47.656;11.310;2023-07-24T10:33:11;10.25;;;6.68;;
75050;SDS011;63628;47.656;11.310;2023-07-24T10:35:41;9.57;;;6.65;;
75050;SDS011;63628;47.656;11.310;2023-07-24T10:38:10;9.05;;;6.28;;
75050;SDS011;63628;47.656;11.310;2023-07-24T10:40:37;11.38;;;6.63;;
75050;SDS011;63628;47.656;11.310;2023-07-24T10:43:05;8.18;;;6.22;;
75050;SDS011;63628;47.656;11.310;2023-07-24T10:45:42;10.35;;;6.18;;
75050;SDS011;63628;47.656;11.310;2023-07-24T10:48:16;8.30;;;6.55;;
75050;SDS011;63628;47.656;11.310;2023-07-24T10:50:43;9.60;;;6.63;;
75050;SDS011;63628;47.656;11.310;2023-07-24T10:53:14;7.88;;;6.22;;
75050;SDS011;63628;47.656;11.310;2023-07-24T10:55:42;12.43;;;6.70;;
75050;SDS011;63628;47.656;11.310;2023-07-24T10:58:09;8.90;;;6.13;;
75050;SDS011;63628;47.656;11.310;2023-07-24T11:00:38;7.47;;;6.07;;
75050;SDS011;63628;47.656;11.310;2023-07-24T11:03:05;9.10;;;6.15;;
75050;SDS011;63628;47.656;11.310;2023-07-24T11:05:34;9.45;;;6.68;;
75050;SDS011;63628;47.656;11.310;2023-07-24T11:08:05;9.57;;;6.55;;
75050;SDS011;63628;47.656;11.310;2023-07-24T11:10:35;8.40;;;6.10;;
75050;SDS011;63628;47.656;11.310;2023-07-24T11:13:02;11.90;;;6.93;;
75050;SDS011;63628;47.656;11.310;2023-07-24T11:15:28;8.13;;;5.82;;
75050;SDS011;63628;47.656;11.310;2023-07-24T11:17:55;10.25;;;6.80;;
75050;SDS011;63628;47.656;11.310;2023-07-24T11:20:22;7.18;;;5.78;;
75050;SDS011;63628;47.656;11.310;2023-07-24T11:22:50;7.65;;;5.80;;
75050;SDS011;63628;47.656;11.310;2023-07-24T11:25:16;7.97;;;5.82;;
75050;SDS011;63628;47.656;11.310;2023-07-24T11:27:43;9.13;;;6.13;;
75050;SDS011;63628;47.656;11.310;2023-07-24T11:30:11;9.63;;;6.30;;
75050;SDS011;63628;47.656;11.310;2023-07-24T11:32:39;9.00;;;6.63;;
75050;SDS011;63628;47.656;11.310;2023-07-24T11:35:07;8.97;;;6.10;;
75050;SDS011;63628;47.656;11.310;2023-07-24T11:37:35;8.85;;;6.25;;
75050;SDS011;63628;47.656;11.310;2023-07-24T11:40:04;10.90;;;6.68;;
75050;SDS011;63628;47.656;11.310;2023-07-24T11:42:42;8.52;;;6.30;;
75050;SDS011;63628;47.656;11.310;2023-07-24T11:45:10;7.55;;;5.78;;
75050;SDS011;63628;47.656;11.310;2023-07-24T11:47:44;8.90;;;6.45;;
75050;SDS011;63628;47.656;11.310;2023-07-24T11:50:11;7.93;;;5.70;;
75050;SDS011;63628;47.656;11.310;2023-07-24T11:52:39;8.25;;;5.40;;
75050;SDS011;63628;47.656;11.310;2023-07-24T11:55:08;8.52;;;6.03;;
75050;SDS011;63628;47.656;11.310;2023-07-24T11:57:35;10.40;;;6.97;;
75050;SDS011;63628;47.656;11.310;2023-07-24T12:00:03;9.20;;;6.95;;
75050;SDS011;63628;47.656;11.310;2023-07-24T12:02:31;9.23;;;6.85;;
75050;SDS011;63628;47.656;11.310;2023-07-24T12:04:59;5.82;;;5.05;;
75050;SDS011;63628;47.656;11.310;2023-07-24T12:07:30;7.22;;;4.97;;
75050;SDS011;63628;47.656;11.310;2023-07-24T12:09:59;7.95;;;5.45;;
75050;SDS011;63628;47.656;11.310;2023-07-24T12:12:37;6.82;;;5.00;;
75050;SDS011;63628;47.656;11.310;2023-07-24T12:15:05;9.75;;;6.82;;
75050;SDS011;63628;47.656;11.310;2023-07-24T12:17:32;5.95;;;4.70;;
75050;SDS011;63628;47.656;11.310;2023-07-24T12:19:59;6.95;;;5.35;;
75050;SDS011;63628;47.656;11.310;2023-07-24T12:22:25;5.93;;;4.88;;
75050;SDS011;63628;47.656;11.310;2023-07-24T12:24:56;8.10;;;6.18;;
75050;SDS011;63628;47.656;11.310;2023-07-24T12:27:23;9.20;;;5.10;;
75050;SDS011;63628;47.656;11.310;2023-07-24T12:29:52;7.15;;;5.30;;
75050;SDS011;63628;47.656;11.310;2023-07-24T12:32:19;8.23;;;6.07;;
75050;SDS011;63628;47.656;11.310;2023-07-24T12:34:46;8.13;;;6.05;;
75050;SDS011;63628;47.656;11.310;2023-07-24T12:37:13;8.55;;;6.10;;
75050;SDS011;63628;47.656;11.310;2023-07-24T12:39:40;9.23;;;6.63;;
75050;SDS011;63628;47.656;11.310;2023-07-24T12:42:07;8.65;;;6.68;;
75050;SDS011;63628;47.656;11.310;2023-07-24T12:44:34;8.80;;;6.68;;
75050;SDS011;63628;47.656;11.310;2023-07-24T12:47:03;7.82;;;6.07;;
75050;SDS011;63628;47.656;11.310;2023-07-24T12:49:30;8.98;;;6.72;;
75050;SDS011;63628;47.656;11.310;2023-07-24T12:52:00;8.73;;;5.50;;
75050;SDS011;63628;47.656;11.310;2023-07-24T12:54:26;9.18;;;6.18;;
75050;SDS011;63628;47.656;11.310;2023-07-24T12:57:11;9.95;;;5.85;;
75050;SDS011;63628;47.656;11.310;2023-07-24T12:59:38;13.57;;;4.95;;
75050;SDS011;63628;47.656;11.310;2023-07-24T13:02:06;10.40;;;4.22;;
75050;SDS011;63628;47.656;11.310;2023-07-24T13:04:33;6.70;;;4.30;;
75050;SDS011;63628;47.656;11.310;2023-07-24T13:06:59;11.93;;;5.68;;
75050;SDS011;63628;47.656;11.310;2023-07-24T13:09:26;12.13;;;5.85;;
75050;SDS011;63628;47.656;11.310;2023-07-24T13:11:54;9.73;;;5.90;;
75050;SDS011;63628;47.656;11.310;2023-07-24T13:14:20;7.72;;;4.80;;
75050;SDS011;63628;47.656;11.310;2023-07-24T13:16:47;9.27;;;5.65;;
75050;SDS011;63628;47.656;11.310;2023-07-24T13:19:15;8.15;;;5.60;;
75050;SDS011;63628;47.656;11.310;2023-07-24T13:21:46;6.15;;;4.68;;
75050;SDS011;63628;47.656;11.310;2023-07-24T13:24:13;8.48;;;5.85;;
75050;SDS011;63628;47.656;11.310;2023-07-24T13:26:40;7.50;;;5.55;;
75050;SDS011;63628;47.656;11.310;2023-07-24T13:29:07;8.55;;;5.80;;
75050;SDS011;63628;47.656;11.310;2023-07-24T13:31:34;8.80;;;5.60;;
75050;SDS011;63628;47.656;11.310;2023-07-24T13:34:01;7.85;;;6.03;;
75050;SDS011;63628;47.656;11.310;2023-07-24T13:36:29;8.38;;;5.97;;
75050;SDS011;63628;47.656;11.310;2023-07-24T13:38:56;6.72;;;4.65;;
75050;SDS011;63628;47.656;11.310;2023-07-24T13:41:23;7.50;;;4.82;;
75050;SDS011;63628;47.656;11.310;2023-07-24T13:43:50;7.97;;;5.32;;
75050;SDS011;63628;47.656;11.310;2023-07-24T13:46:17;7.05;;;5.03;;
75050;SDS011;63628;47.656;11.310;2023-07-24T13:48:44;7.43;;;5.43;;
75050;SDS011;63628;47.656;11.310;2023-07-24T13:51:10;7.35;;;5.18;;
75050;SDS011;63628;47.656;11.310;2023-07-24T13:53:38;7.18;;;5.10;;
75050;SDS011;63628;47.656;11.310;2023-07-24T13:56:05;7.35;;;5.45;;
75050;SDS011;63628;47.656;11.310;2023-07-24T13:58:32;8.35;;;5.40;;
75050;SDS011;63628;47.656;11.310;2023-07-24T14:00:59;6.43;;;4.60;;
75050;SDS011;63628;47.656;11.310;2023-07-24T14:03:26;5.93;;;4.38;;
75050;SDS011;63628;47.656;11.310;2023-07-24T14:05:56;7.20;;;4.63;;
75050;SDS011;63628;47.656;11.310;2023-07-24T14:08:23;6.00;;;4.30;;
75050;SDS011;63628;47.656;11.310;2023-07-24T14:10:51;5.68;;;3.65;;
75050;SDS011;63628;47.656;11.310;2023-07-24T14:13:18;6.85;;;4.82;;
75050;SDS011;63628;47.656;11.310;2023-07-24T14:15:44;8.35;;;5.32;;
75050;SDS011;63628;47.656;11.310;2023-07-24T14:18:11;6.53;;;5.03;;
75050;SDS011;63628;47.656;11.310;2023-07-24T14:20:37;7.13;;;4.65;;
75050;SDS011;63628;47.656;11.310;2023-07-24T14:23:06;6.18;;;4.10;;
75050;SDS011;63628;47.656;11.310;2023-07-24T14:25:34;5.70;;;4.50;;
75050;SDS011;63628;47.656;11.310;2023-07-24T14:28:02;6.40;;;4.18;;
75050;SDS011;63628;47.656;11.310;2023-07-24T14:30:29;5.95;;;4.57;;
75050;SDS011;63628;47.656;11.310;2023-07-24T14:32:55;6.05;;;5.30;;
75050;SDS011;63628;47.656;11.310;2023-07-24T14:35:22;6.10;;;4.93;;
75050;SDS011;63628;47.656;11.310;2023-07-24T14:37:49;5.90;;;3.75;;